Time;durP1;ratioP1;P1;durP2;ratioP2;P2;SDS_P1;SDS_P2;PMS_P1;PMS_P2;Temp;Humidity;BMP_temperature;BMP_pressure;BME280_temperature;BME280_humidity;BME280_pressure;Samples;Min_cycle;Max_cycle;Signal;HPM_P1;HPM_P2
2023/05/16 00:01:08;;;;;;;1.77;1.30;;;22.90;51.30;;;;;;7604296;23;80268;-61
2023/05/16 00:04:08;;;;;;;2.10;1.63;;;22.90;51.30;;;;;;7604229;23;80621;-62
2023/05/16 00:07:09;;;;;;;1.67;1.23;;;22.90;51.30;;;;;;7604275;23;81337;-63
2023/05/16 00:10:10;;;;;;;1.60;1.40;;;22.90;51.30;;;;;;7604058;23;80326;-61
2023/05/16 00:13:29;;;;;;;3.33;1.27;;;22.90;51.20;;;;;;7605241;23;80097;-65
2023/05/16 00:16:30;;;;;;;2.17;1.15;;;22.90;51.20;;;;;;7605295;23;80554;-69
2023/05/16 00:19:31;;;;;;;2.50;1.50;;;22.90;51.20;;;;;;7604920;23;80320;-69
2023/05/16 00:22:32;;;;;;;1.73;1.45;;;22.90;51.20;;;;;;7604405;23;80844;-69
2023/05/16 00:25:32;;;;;;;2.67;1.73;;;22.90;51.10;;;;;;7604070;23;80325;-71
2023/05/16 00:28:33;;;;;;;1.77;1.25;;;22.90;51.10;;;;;;7578045;23;80622;-71
2023/05/16 00:31:33;;;;;;;1.95;1.30;;;22.90;51.10;;;;;;7603798;23;80895;-62
2023/05/16 00:34:34;;;;;;;1.75;1.20;;;22.90;51.10;;;;;;7605152;23;81291;-62
2023/05/16 00:37:35;;;;;;;2.10;1.48;;;22.90;51.10;;;;;;7604210;23;79928;-62
2023/05/16 00:40:35;;;;;;;2.60;1.17;;;22.90;51.10;;;;;;7604218;23;80326;-62
2023/05/16 00:43:38;;;;;;;1.80;1.40;;;22.90;51.10;;;;;;7577938;23;81929;-62
2023/05/16 00:46:38;;;;;;;2.45;1.77;;;22.90;51.10;;;;;;7577628;23;81447;-62
2023/05/16 00:49:39;;;;;;;1.88;1.33;;;22.90;51.00;;;;;;7603980;23;81517;-60
2023/05/16 00:52:40;;;;;;;3.00;1.30;;;22.90;51.00;;;;;;7578104;23;80215;-60
2023/05/16 00:55:40;;;;;;;1.38;1.27;;;22.80;51.00;;;;;;7605237;23;80614;-60
2023/05/16 00:58:41;;;;;;;1.80;1.25;;;22.80;51.00;;;;;;7606413;23;80209;-60
2023/05/16 01:01:42;;;;;;;4.70;1.88;;;22.80;50.90;;;;;;7606213;23;80826;-60
2023/05/16 01:04:43;;;;;;;1.48;1.35;;;22.80;50.90;;;;;;7579154;23;81466;-60
2023/05/16 01:07:43;;;;;;;1.38;1.25;;;22.80;50.90;;;;;;7606281;23;80747;-59
2023/05/16 01:10:44;;;;;;;1.58;1.33;;;22.80;50.90;;;;;;7605889;23;81221;-59
2023/05/16 01:13:45;;;;;;;1.85;1.40;;;22.80;50.90;;;;;;7578900;23;83265;-59
2023/05/16 01:16:47;;;;;;;2.65;1.63;;;22.80;50.90;;;;;;7605960;23;80245;-60
2023/05/16 01:19:48;;;;;;;2.45;2.00;;;22.80;50.90;;;;;;7605557;23;80699;-60
2023/05/16 01:22:50;;;;;;;2.88;1.67;;;22.80;50.90;;;;;;7606901;23;80477;-61
2023/05/16 01:25:50;;;;;;;2.20;1.50;;;22.80;50.90;;;;;;7579407;23;83387;-61
2023/05/16 01:28:51;;;;;;;1.70;1.20;;;22.80;50.80;;;;;;7579779;23;81921;-61
2023/05/16 01:31:52;;;;;;;2.42;1.33;;;22.80;50.90;;;;;;7606014;23;81162;-63
2023/05/16 01:34:53;;;;;;;3.53;1.30;;;22.80;50.90;;;;;;7604820;23;81570;-62
2023/05/16 01:37:55;;;;;;;1.23;1.13;;;22.80;50.90;;;;;;7604755;23;84666;-63
2023/05/16 01:40:56;;;;;;;2.22;1.52;;;22.80;50.90;;;;;;7605963;23;80538;-63
2023/05/16 01:43:56;;;;;;;2.00;1.40;;;22.80;50.90;;;;;;7579437;23;81360;-62
2023/05/16 01:46:57;;;;;;;8.48;1.55;;;22.80;50.90;;;;;;7605744;23;80427;-62
2023/05/16 01:49:57;;;;;;;1.60;1.20;;;22.90;50.80;;;;;;7605770;23;80322;-63
2023/05/16 01:52:58;;;;;;;1.52;1.40;;;22.90;50.80;;;;;;7604137;23;87382;-63
2023/05/16 01:56:01;;;;;;;1.98;1.30;;;22.90;50.80;;;;;;7605127;23;81930;-64
2023/05/16 01:59:01;;;;;;;2.63;1.25;;;22.90;50.80;;;;;;7578908;23;83270;-64
2023/05/16 02:02:02;;;;;;;1.75;1.33;;;22.90;50.80;;;;;;7578099;23;81326;-64
2023/05/16 02:05:04;;;;;;;1.50;1.13;;;22.80;50.70;;;;;;7606076;23;80367;-64
2023/05/16 02:08:05;;;;;;;1.73;1.25;;;22.80;50.70;;;;;;7605390;23;80645;-64
2023/05/16 02:11:05;;;;;;;1.27;1.17;;;22.80;50.60;;;;;;7604853;23;79979;-63
2023/05/16 02:14:06;;;;;;;1.20;1.10;;;22.80;50.70;;;;;;7601786;23;80689;-62
2023/05/16 02:17:06;;;;;;;1.48;1.38;;;22.80;50.60;;;;;;7578084;23;82930;-62
2023/05/16 02:20:10;;;;;;;1.63;1.20;;;22.80;50.60;;;;;;7605962;23;80369;-62
2023/05/16 02:23:10;;;;;;;2.25;1.10;;;22.80;50.60;;;;;;7577841;23;82849;-62
2023/05/16 02:26:11;;;;;;;1.40;1.30;;;22.80;50.60;;;;;;7606934;23;80486;-61
2023/05/16 02:29:11;;;;;;;1.20;1.10;;;22.80;50.60;;;;;;7604925;23;80290;-62
2023/05/16 02:32:12;;;;;;;1.80;1.27;;;22.80;50.60;;;;;;7605640;23;80267;-62
2023/05/16 02:35:13;;;;;;;1.70;1.38;;;22.80;50.60;;;;;;7604986;23;86829;-62
2023/05/16 02:38:16;;;;;;;1.30;1.17;;;22.80;50.60;;;;;;7604727;23;80236;-60
2023/05/16 02:41:16;;;;;;;1.75;1.30;;;22.80;50.50;;;;;;7604677;23;80643;-59
2023/05/16 02:44:17;;;;;;;2.30;1.30;;;22.80;50.70;;;;;;7605523;23;80673;-60
2023/05/16 02:47:17;;;;;;;2.60;1.33;;;22.80;50.70;;;;;;7577615;23;83621;-61
2023/05/16 02:50:18;;;;;;;1.15;1.02;;;22.90;50.70;;;;;;7578158;23;86214;-62
2023/05/16 02:53:19;;;;;;;1.65;1.55;;;22.80;50.70;;;;;;7606140;23;79786;-61
2023/05/16 02:56:20;;;;;;;1.55;1.30;;;22.80;50.70;;;;;;7605036;23;80520;-61
2023/05/16 02:59:21;;;;;;;1.50;1.40;;;22.90;50.80;;;;;;7578106;23;82979;-61
2023/05/16 03:02:21;;;;;;;4.03;1.60;;;22.80;50.80;;;;;;7604420;23;80405;-62
2023/05/16 03:05:22;;;;;;;1.90;1.42;;;22.80;51.00;;;;;;7605115;23;80569;-63
2023/05/16 03:08:22;;;;;;;1.58;1.45;;;22.80;51.20;;;;;;7604913;23;80487;-61
2023/05/16 03:11:23;;;;;;;1.60;1.35;;;22.80;51.30;;;;;;7578773;23;83159;-61
2023/05/16 03:14:24;;;;;;;3.25;1.55;;;22.80;51.40;;;;;;7604402;23;80669;-60
2023/05/16 03:17:24;;;;;;;8.05;1.67;;;22.80;51.50;;;;;;7605503;23;81332;-66
2023/05/16 03:20:25;;;;;;;1.85;1.50;;;22.80;51.40;;;;;;7605168;23;80306;-66
2023/05/16 03:23:26;;;;;;;1.40;1.30;;;22.80;51.90;;;;;;7577686;23;83272;-65
2023/05/16 03:26:26;;;;;;;2.22;1.60;;;22.80;51.50;;;;;;7604570;23;80358;-68
2023/05/16 03:29:27;;;;;;;2.45;1.50;;;22.80;51.50;;;;;;7602903;23;80622;-69
2023/05/16 03:32:27;;;;;;;1.63;1.52;;;22.80;51.50;;;;;;7600958;23;80718;-65
2023/05/16 03:35:28;;;;;;;2.60;1.60;;;22.80;51.60;;;;;;7604384;23;81752;-66
2023/05/16 03:38:28;;;;;;;1.20;1.10;;;22.80;51.70;;;;;;7604982;23;80609;-64
2023/05/16 03:41:30;;;;;;;2.42;1.67;;;22.80;51.70;;;;;;7577344;23;81247;-65
2023/05/16 03:44:30;;;;;;;1.33;1.20;;;22.80;51.70;;;;;;7600594;23;80257;-64
2023/05/16 03:47:31;;;;;;;1.83;1.60;;;22.80;51.70;;;;;;7600301;23;80408;-66
2023/05/16 03:50:32;;;;;;;4.72;1.65;;;22.90;51.90;;;;;;7598691;23;80650;-64
2023/05/16 03:53:33;;;;;;;4.57;1.77;;;22.90;51.90;;;;;;7600864;23;80663;-62
2023/05/16 03:56:33;;;;;;;2.40;1.40;;;22.90;51.70;;;;;;7601333;23;80549;-62
2023/05/16 03:59:35;;;;;;;3.53;1.48;;;23.00;51.80;;;;;;7601165;23;80355;-62
2023/05/16 04:02:35;;;;;;;40.15;3.00;;;23.00;51.70;;;;;;7602384;23;80854;-65
2023/05/16 04:05:36;;;;;;;11.13;5.03;;;23.00;51.70;;;;;;7602595;23;80234;-65
2023/05/16 04:08:38;;;;;;;10.40;5.20;;;23.10;51.90;;;;;;7603095;23;80385;-57
2023/05/16 04:11:39;;;;;;;10.15;3.53;;;23.10;52.00;;;;;;7604143;23;80282;-55
2023/05/16 04:14:39;;;;;;;7.28;3.63;;;23.10;51.60;;;;;;7601296;23;80864;-62
2023/05/16 04:17:40;;;;;;;5.35;2.90;;;23.10;52.20;;;;;;7603652;23;81458;-59
2023/05/16 04:20:40;;;;;;;6.90;3.42;;;23.10;51.80;;;;;;7602578;23;81434;-60
2023/05/16 04:23:41;;;;;;;6.20;3.10;;;23.10;52.20;;;;;;7602302;23;80308;-66
2023/05/16 04:26:41;;;;;;;5.60;2.88;;;23.10;52.30;;;;;;7604148;23;80531;-60
2023/05/16 04:29:42;;;;;;;5.20;2.75;;;23.20;52.40;;;;;;7604545;23;80421;-61
2023/05/16 04:32:43;;;;;;;4.47;2.80;;;23.10;52.70;;;;;;7604217;23;80343;-62
2023/05/16 04:35:43;;;;;;;5.05;2.63;;;23.20;52.40;;;;;;7604420;23;80571;-63
2023/05/16 04:38:46;;;;;;;8.02;2.63;;;23.20;52.90;;;;;;7601553;23;80755;-65
2023/05/16 04:41:46;;;;;;;6.13;2.13;;;23.20;52.90;;;;;;7603350;23;80298;-66
2023/05/16 04:44:47;;;;;;;6.50;2.42;;;23.20;53.10;;;;;;7603837;23;80426;-60
2023/05/16 04:47:47;;;;;;;9.90;2.30;;;23.20;52.60;;;;;;7604641;23;80232;-65
2023/05/16 04:50:48;;;;;;;5.25;2.45;;;23.20;52.80;;;;;;7602969;23;80508;-66
2023/05/16 04:53:48;;;;;;;6.53;2.00;;;23.20;52.70;;;;;;7603854;23;80259;-64
2023/05/16 04:56:49;;;;;;;6.07;1.85;;;23.30;53.30;;;;;;7604145;23;80450;-62
2023/05/16 04:59:49;;;;;;;5.05;2.00;;;23.20;53.30;;;;;;7604808;23;80971;-65
2023/05/16 05:02:50;;;;;;;4.00;2.03;;;23.30;53.70;;;;;;7604147;23;80658;-60
2023/05/16 05:05:51;;;;;;;3.45;1.77;;;23.30;53.50;;;;;;7602992;23;81830;-63
2023/05/16 05:08:51;;;;;;;4.72;2.15;;;23.30;53.60;;;;;;7601800;23;80286;-63
2023/05/16 05:11:52;;;;;;;5.25;2.00;;;23.30;53.60;;;;;;7597593;23;80200;-61
2023/05/16 05:14:52;;;;;;;3.90;2.30;;;23.30;53.30;;;;;;7599170;23;80442;-61
2023/05/16 05:17:53;;;;;;;4.97;2.08;;;23.40;53.40;;;;;;7598613;23;81408;-61
2023/05/16 05:20:53;;;;;;;6.68;2.50;;;23.40;53.30;;;;;;7599527;23;80755;-61
2023/05/16 05:23:54;;;;;;;4.97;1.63;;;23.40;53.20;;;;;;7598447;23;80970;-61
2023/05/16 05:26:55;;;;;;;3.63;2.10;;;23.40;53.10;;;;;;7600728;23;80911;-63
2023/05/16 05:29:55;;;;;;;3.70;1.90;;;23.40;52.90;;;;;;7582157;23;81039;-62
2023/05/16 05:32:56;;;;;;;3.55;1.92;;;23.40;52.80;;;;;;7469890;23;81785;-59
2023/05/16 05:35:56;;;;;;;4.10;1.90;;;23.40;52.70;;;;;;7600117;23;80412;-65
2023/05/16 05:38:57;;;;;;;6.82;2.50;;;23.40;51.70;;;;;;7603153;23;80282;-64
2023/05/16 05:41:57;;;;;;;2.95;2.40;;;23.30;52.90;;;;;;7604539;23;80324;-65
2023/05/16 05:44:58;;;;;;;5.60;2.65;;;23.20;52.50;;;;;;7604528;23;81073;-64
2023/05/16 05:47:58;;;;;;;4.05;2.53;;;23.20;52.50;;;;;;7569908;23;81159;-64
2023/05/16 05:50:59;;;;;;;3.72;2.40;;;23.10;52.20;;;;;;7587214;23;81069;-65
2023/05/16 05:53:59;;;;;;;3.60;2.10;;;23.10;52.40;;;;;;7596120;23;80406;-65
2023/05/16 05:57:00;;;;;;;4.88;2.53;;;23.10;52.20;;;;;;7601722;23;80384;-65
2023/05/16 06:00:00;;;;;;;3.17;2.10;;;23.00;52.50;;;;;;7604501;23;81215;-64
2023/05/16 06:03:01;;;;;;;5.60;2.10;;;23.00;52.30;;;;;;7602694;23;80199;-65
2023/05/16 06:06:01;;;;;;;5.03;2.20;;;23.00;52.30;;;;;;7602257;23;80833;-62
2023/05/16 06:09:02;;;;;;;4.00;2.03;;;23.00;52.20;;;;;;7604188;23;80522;-63
2023/05/16 06:12:03;;;;;;;2.97;2.10;;;23.00;52.60;;;;;;7576613;23;82487;-63
2023/05/16 06:15:03;;;;;;;2.58;2.38;;;23.00;52.60;;;;;;7605353;23;80721;-61
2023/05/16 06:18:04;;;;;;;4.13;3.03;;;23.00;52.40;;;;;;7575882;23;83297;-61
2023/05/16 06:21:05;;;;;;;5.05;3.50;;;23.10;52.60;;;;;;7604570;23;80276;-63
2023/05/16 06:24:05;;;;;;;7.03;3.70;;;23.00;52.50;;;;;;7604779;23;81057;-65
2023/05/16 06:27:06;;;;;;;4.82;2.97;;;23.10;52.40;;;;;;7601963;23;80267;-64
2023/05/16 06:30:07;;;;;;;3.58;3.10;;;23.10;52.50;;;;;;7603768;23;80012;-64
2023/05/16 06:33:08;;;;;;;4.57;2.88;;;23.10;52.60;;;;;;7598843;23;81081;-64
2023/05/16 06:36:08;;;;;;;3.65;2.63;;;23.20;52.30;;;;;;7601765;23;80308;-65
2023/05/16 06:39:09;;;;;;;4.70;2.92;;;23.10;52.90;;;;;;7600475;23;80636;-64
2023/05/16 06:42:10;;;;;;;4.05;2.85;;;23.10;52.90;;;;;;7601356;23;80209;-63
2023/05/16 06:45:11;;;;;;;5.32;3.20;;;23.20;52.70;;;;;;7576622;23;83189;-62
2023/05/16 06:48:12;;;;;;;5.20;2.67;;;23.10;52.80;;;;;;7602928;23;80755;-63
2023/05/16 06:51:12;;;;;;;4.85;2.70;;;23.10;52.90;;;;;;7603894;23;80797;-60
2023/05/16 06:54:13;;;;;;;5.47;3.05;;;23.20;52.50;;;;;;7603788;23;80489;-62
2023/05/16 06:57:13;;;;;;;4.38;2.88;;;23.10;52.20;;;;;;7604746;23;80798;-65
2023/05/16 07:00:14;;;;;;;5.18;3.10;;;23.10;52.00;;;;;;7598191;23;80740;-64
2023/05/16 07:03:14;;;;;;;5.18;3.28;;;22.90;51.80;;;;;;7576930;23;80962;-65
2023/05/16 07:06:15;;;;;;;5.28;3.53;;;22.80;51.20;;;;;;7604546;23;80240;-65
2023/05/16 07:09:16;;;;;;;3.78;3.47;;;22.40;51.90;;;;;;7587377;23;82880;-64
2023/05/16 07:12:17;;;;;;;4.60;3.33;;;21.80;51.90;;;;;;7600882;23;80733;-64
2023/05/16 07:15:17;;;;;;;3.85;3.10;;;21.80;53.00;;;;;;7603151;23;80388;-66
2023/05/16 07:18:18;;;;;;;5.20;3.17;;;22.10;52.90;;;;;;7602135;23;82016;-66
2023/05/16 07:21:18;;;;;;;4.88;3.05;;;22.40;52.50;;;;;;7602539;23;81136;-66
2023/05/16 07:24:19;;;;;;;7.03;2.90;;;22.50;52.50;;;;;;7603823;23;80433;-66
2023/05/16 07:27:19;;;;;;;5.05;2.90;;;22.60;52.30;;;;;;7602209;23;80767;-66
2023/05/16 07:30:20;;;;;;;2.88;2.60;;;22.70;52.50;;;;;;7604015;23;80676;-65
2023/05/16 07:33:20;;;;;;;4.85;3.80;;;22.80;52.30;;;;;;7601674;23;82657;-62
2023/05/16 07:36:21;;;;;;;6.38;3.80;;;22.80;51.60;;;;;;7604321;23;80825;-66
2023/05/16 07:39:22;;;;;;;6.38;3.35;;;22.10;52.10;;;;;;7600531;23;80531;-66
2023/05/16 07:42:22;;;;;;;6.05;3.65;;;21.90;52.60;;;;;;7603848;23;80451;-64
2023/05/16 07:45:23;;;;;;;5.90;3.38;;;22.10;52.40;;;;;;7574695;23;80973;-64
2023/05/16 07:48:23;;;;;;;6.00;4.38;;;22.20;52.40;;;;;;7601917;23;80679;-65
2023/05/16 07:51:23;;;;;;;7.60;4.03;;;22.40;52.30;;;;;;7576129;23;81706;-66
2023/05/16 07:54:24;;;;;;;7.03;3.60;;;22.50;51.40;;;;;;7601381;23;81022;-66
2023/05/16 07:57:24;;;;;;;3.95;3.35;;;22.10;52.30;;;;;;7600512;23;80320;-64
2023/05/16 08:00:25;;;;;;;7.13;3.92;;;22.00;52.60;;;;;;7601207;23;80095;-64
2023/05/16 08:03:26;;;;;;;6.90;3.90;;;22.00;52.50;;;;;;7599750;23;80383;-66
2023/05/16 08:06:26;;;;;;;4.68;3.60;;;21.90;53.10;;;;;;7589207;23;80619;-64
2023/05/16 08:09:27;;;;;;;6.35;3.67;;;22.00;52.70;;;;;;7603491;23;80632;-63
2023/05/16 08:12:27;;;;;;;6.43;3.88;;;22.30;52.50;;;;;;7604933;23;81227;-67
2023/05/16 08:15:28;;;;;;;4.03;3.20;;;22.50;52.10;;;;;;7602508;23;80458;-68
2023/05/16 08:18:28;;;;;;;6.28;3.28;;;22.60;52.00;;;;;;7603811;23;80695;-69
2023/05/16 08:21:30;;;;;;;4.07;3.25;;;22.70;51.80;;;;;;7600330;23;81216;-72
2023/05/16 08:24:31;;;;;;;6.05;2.88;;;22.80;51.80;;;;;;7601426;23;80282;-73
2023/05/16 08:27:31;;;;;;;5.72;3.17;;;22.90;51.60;;;;;;7603806;23;80929;-73
2023/05/16 08:30:32;;;;;;;6.47;3.47;;;23.00;51.30;;;;;;7601630;23;80888;-63
2023/05/16 08:33:32;;;;;;;12.65;3.47;;;23.10;50.60;;;;;;7604749;23;80971;-63
2023/05/16 08:36:34;;;;;;;3.90;3.30;;;23.10;50.70;;;;;;7604465;23;80302;-64
2023/05/16 08:39:34;;;;;;;3.88;3.17;;;23.20;50.90;;;;;;7604640;23;80930;-66
2023/05/16 08:42:35;;;;;;;3.50;3.20;;;23.20;50.70;;;;;;7603217;23;80326;-65
2023/05/16 08:45:35;;;;;;;6.43;3.45;;;23.30;50.90;;;;;;7605427;23;80549;-62
2023/05/16 08:48:36;;;;;;;4.82;3.58;;;23.30;51.00;;;;;;7602283;23;80968;-65
2023/05/16 08:51:36;;;;;;;5.82;3.53;;;23.30;50.60;;;;;;7605863;23;81301;-65
2023/05/16 08:54:37;;;;;;;4.85;3.38;;;23.40;51.10;;;;;;7601462;23;81397;-65
2023/05/16 08:57:37;;;;;;;4.70;3.40;;;23.50;50.60;;;;;;7603313;23;80742;-68
2023/05/16 09:00:38;;;;;;;5.93;3.90;;;23.40;50.00;;;;;;7603743;23;80278;-66
2023/05/16 09:03:39;;;;;;;3.67;3.38;;;23.30;49.80;;;;;;7604317;23;81180;-67
2023/05/16 09:06:40;;;;;;;4.97;3.40;;;22.90;50.00;;;;;;7604589;23;80389;-66
2023/05/16 09:09:40;;;;;;;5.55;3.20;;;22.80;50.40;;;;;;7605094;23;80310;-66
2023/05/16 09:12:42;;;;;;;3.90;3.05;;;22.90;50.10;;;;;;7605704;23;80762;-66
2023/05/16 09:15:42;;;;;;;3.63;3.33;;;22.80;49.90;;;;;;7604114;23;80649;-65
2023/05/16 09:18:43;;;;;;;6.03;3.38;;;23.00;50.00;;;;;;7578092;23;81581;-66
2023/05/16 09:21:43;;;;;;;6.40;3.70;;;22.90;49.80;;;;;;7573188;23;80891;-65
2023/05/16 09:24:44;;;;;;;5.20;3.65;;;23.00;49.90;;;;;;7602397;23;80615;-66
2023/05/16 09:27:44;;;;;;;6.32;3.40;;;23.00;49.90;;;;;;7602761;23;81531;-65
2023/05/16 09:30:45;;;;;;;9.95;3.75;;;23.00;49.90;;;;;;7601797;23;80506;-67
2023/05/16 09:33:45;;;;;;;5.57;3.88;;;23.00;50.40;;;;;;7603325;23;80115;-65
2023/05/16 09:36:46;;;;;;;5.40;3.10;;;23.10;50.30;;;;;;7604298;23;81061;-65
2023/05/16 09:39:46;;;;;;;9.30;3.92;;;23.20;50.10;;;;;;7575685;23;80547;-65
2023/05/16 09:42:47;;;;;;;5.60;3.65;;;23.40;49.90;;;;;;7604229;23;80843;-65
2023/05/16 09:45:47;;;;;;;4.50;2.97;;;23.50;50.10;;;;;;7603776;23;80348;-67
2023/05/16 09:48:48;;;;;;;3.47;3.17;;;23.50;50.10;;;;;;7604105;23;80015;-64
2023/05/16 09:51:48;;;;;;;4.10;3.33;;;23.60;50.20;;;;;;7604231;23;80982;-65
2023/05/16 09:54:49;;;;;;;5.40;3.70;;;23.60;49.80;;;;;;7605302;23;80654;-64
2023/05/16 09:57:50;;;;;;;4.95;3.55;;;23.60;49.80;;;;;;7604777;23;81647;-64
2023/05/16 10:00:50;;;;;;;5.15;3.28;;;23.70;49.40;;;;;;7599881;23;80219;-69
2023/05/16 10:03:51;;;;;;;5.18;3.65;;;23.80;49.60;;;;;;7603469;23;80583;-72
2023/05/16 10:06:52;;;;;;;5.72;3.65;;;23.80;49.00;;;;;;7591107;23;80417;-73
2023/05/16 10:09:52;;;;;;;7.65;3.38;;;23.80;48.80;;;;;;7599586;23;81416;-72
2023/05/16 10:12:53;;;;;;;4.97;3.50;;;23.80;48.90;;;;;;7604081;23;80664;-74
2023/05/16 10:15:53;;;;;;;6.60;3.25;;;23.80;49.00;;;;;;7602909;23;80744;-72
2023/05/16 10:18:54;;;;;;;3.55;3.25;;;23.80;49.00;;;;;;7601307;23;80579;-73
2023/05/16 10:21:57;;;;;;;4.38;3.10;;;23.80;49.30;;;;;;7602503;23;80354;-72
2023/05/16 10:24:58;;;;;;;4.43;2.95;;;23.90;49.20;;;;;;7602648;23;80856;-71
2023/05/16 10:27:58;;;;;;;3.60;3.15;;;23.90;49.10;;;;;;7602393;23;80759;-72
2023/05/16 10:30:59;;;;;;;3.35;3.05;;;23.90;48.80;;;;;;7607005;23;80295;-73
2023/05/16 10:33:59;;;;;;;7.10;3.13;;;23.90;49.00;;;;;;7605484;23;80409;-72
2023/05/16 10:37:00;;;;;;;4.38;3.00;;;23.90;48.20;;;;;;7605716;23;80396;-72
2023/05/16 10:40:00;;;;;;;8.73;3.83;;;23.90;48.10;;;;;;7606021;23;80368;-73
2023/05/16 10:43:01;;;;;;;4.80;3.50;;;23.90;48.20;;;;;;7605570;23;80153;-70
2023/05/16 10:46:02;;;;;;;5.05;3.25;;;23.90;48.50;;;;;;7578483;23;82434;-73
2023/05/16 10:49:02;;;;;;;5.22;3.20;;;23.90;48.50;;;;;;7606134;23;81482;-71
2023/05/16 10:52:04;;;;;;;4.32;3.50;;;24.00;48.70;;;;;;7605776;23;80404;-72
2023/05/16 10:55:04;;;;;;;5.28;3.45;;;24.00;48.30;;;;;;7606067;23;80785;-75
2023/05/16 10:58:05;;;;;;;6.35;3.40;;;24.00;48.50;;;;;;7580041;23;81495;-61
2023/05/16 11:01:05;;;;;;;3.22;2.90;;;24.00;49.00;;;;;;7605231;23;80336;-63
2023/05/16 11:04:06;;;;;;;3.63;3.03;;;23.90;49.10;;;;;;7604583;23;80458;-63
2023/05/16 11:07:06;;;;;;;4.50;3.25;;;23.90;49.10;;;;;;7601577;23;81156;-63
2023/05/16 11:10:07;;;;;;;6.47;3.60;;;23.90;49.20;;;;;;7604031;23;80758;-63
2023/05/16 11:13:08;;;;;;;4.40;3.55;;;23.90;49.30;;;;;;7603936;23;80457;-64
2023/05/16 11:16:08;;;;;;;6.40;3.75;;;23.90;49.30;;;;;;7601375;23;80863;-66
2023/05/16 11:19:09;;;;;;;7.38;3.22;;;23.80;49.40;;;;;;7603149;23;80626;-65
2023/05/16 11:22:09;;;;;;;7.35;3.40;;;23.90;49.50;;;;;;7602335;23;80354;-66
2023/05/16 11:25:10;;;;;;;5.85;3.70;;;23.90;49.60;;;;;;7603122;23;80186;-67
2023/05/16 11:28:10;;;;;;;6.38;3.60;;;23.80;49.60;;;;;;7603470;23;80288;-64
2023/05/16 11:31:11;;;;;;;6.55;3.50;;;23.80;49.60;;;;;;7601642;23;80829;-68
2023/05/16 11:34:11;;;;;;;7.40;3.20;;;23.80;49.70;;;;;;7594127;23;81676;-74
2023/05/16 11:37:12;;;;;;;6.13;3.60;;;23.80;49.90;;;;;;7600082;23;80329;-72
2023/05/16 11:40:13;;;;;;;5.03;3.47;;;23.90;49.90;;;;;;7599522;23;79914;-74
2023/05/16 11:43:13;;;;;;;76.20;27.17;;;23.80;49.90;;;;;;7597883;23;81058;-74
2023/05/16 11:46:14;;;;;;;29.15;10.18;;;23.80;50.00;;;;;;7598756;23;83540;-75
2023/05/16 11:49:14;;;;;;;54.58;21.27;;;23.80;49.90;;;;;;7596563;23;83631;-73
2023/05/16 11:52:15;;;;;;;79.88;28.10;;;23.80;50.30;;;;;;7598665;23;82876;-72
2023/05/16 11:55:17;;;;;;;87.53;31.10;;;23.80;50.40;;;;;;7598483;23;82945;-73
2023/05/16 11:58:18;;;;;;;88.85;35.22;;;23.80;50.60;;;;;;7599816;23;84138;-73
2023/05/16 12:01:19;;;;;;;68.15;26.33;;;23.80;50.90;;;;;;7598654;23;82823;-73
2023/05/16 12:04:19;;;;;;;68.13;26.35;;;23.80;54.80;;;;;;7596607;23;83079;-72
2023/05/16 12:07:20;;;;;;;72.13;26.05;;;23.80;53.30;;;;;;7600068;23;83085;-72
2023/05/16 12:10:20;;;;;;;59.35;24.27;;;23.80;53.60;;;;;;7597077;23;83156;-72
2023/05/16 12:13:21;;;;;;;55.88;22.05;;;23.90;54.00;;;;;;7598253;23;83476;-72
2023/05/16 12:16:21;;;;;;;54.45;21.83;;;23.80;54.20;;;;;;7597410;23;84129;-72
2023/05/16 12:19:22;;;;;;;67.25;23.70;;;23.90;54.30;;;;;;7596803;23;83425;-73
2023/05/16 12:22:22;;;;;;;74.97;23.98;;;23.90;55.00;;;;;;7588138;23;83923;-73
2023/05/16 12:25:23;;;;;;;49.08;16.63;;;23.90;55.30;;;;;;7595798;23;83096;-73
2023/05/16 12:28:23;;;;;;;47.03;17.15;;;23.80;53.50;;;;;;7596182;23;89490;-72
2023/05/16 12:31:24;;;;;;;18.73;7.82;;;23.80;52.60;;;;;;7572407;23;84014;-71
2023/05/16 12:34:25;;;;;;;16.85;6.50;;;23.80;52.10;;;;;;7587644;23;81573;-74
2023/05/16 12:37:25;;;;;;;12.50;6.03;;;23.70;51.80;;;;;;7600021;23;80166;-74
2023/05/16 12:40:26;;;;;;;7.65;4.50;;;23.80;51.30;;;;;;7600341;23;80649;-72
2023/05/16 12:43:27;;;;;;;8.05;4.47;;;23.70;50.90;;;;;;7602643;23;80244;-73
2023/05/16 12:46:27;;;;;;;6.70;4.53;;;23.70;50.90;;;;;;7599117;23;81148;-63
2023/05/16 12:49:28;;;;;;;8.20;4.22;;;23.70;50.50;;;;;;7595393;23;81369;-62
2023/05/16 12:52:28;;;;;;;6.95;3.70;;;23.70;50.30;;;;;;7593890;23;81606;-64
2023/05/16 12:55:29;;;;;;;30.67;6.90;;;23.60;50.00;;;;;;7604339;23;80369;-68
2023/05/16 12:58:30;;;;;;;80.18;14.70;;;23.60;49.90;;;;;;7602762;23;81629;-63
2023/05/16 13:01:30;;;;;;;28.75;8.13;;;23.60;49.90;;;;;;7599892;23;83074;-63
2023/05/16 13:04:31;;;;;;;17.02;6.00;;;23.60;49.90;;;;;;7604630;23;82628;-64
2023/05/16 13:07:31;;;;;;;17.58;5.85;;;23.60;50.10;;;;;;7605703;23;80521;-62
2023/05/16 13:10:32;;;;;;;15.00;5.97;;;23.60;51.20;;;;;;7606009;23;80768;-62
2023/05/16 13:13:32;;;;;;;16.13;5.70;;;23.50;51.50;;;;;;7604775;23;81130;-63
2023/05/16 13:16:33;;;;;;;16.20;6.80;;;23.50;52.20;;;;;;7602700;23;80873;-63
2023/05/16 13:19:33;;;;;;;18.45;7.82;;;23.60;53.20;;;;;;7605045;23;81387;-63
2023/05/16 13:22:34;;;;;;;16.60;5.88;;;23.60;53.60;;;;;;7606947;23;80296;-63
2023/05/16 13:25:35;;;;;;;15.98;6.32;;;23.60;53.30;;;;;;7605610;23;80705;-63
2023/05/16 13:28:36;;;;;;;11.68;5.45;;;23.60;53.70;;;;;;7586382;23;81030;-63
2023/05/16 13:31:36;;;;;;;14.25;5.75;;;23.60;53.70;;;;;;7602590;23;80225;-62
2023/05/16 13:34:37;;;;;;;13.40;5.78;;;23.50;53.90;;;;;;7592410;23;80625;-60
2023/05/16 13:37:38;;;;;;;13.63;5.63;;;23.60;53.70;;;;;;7591360;23;80179;-61
2023/05/16 13:40:38;;;;;;;15.50;5.65;;;23.60;53.50;;;;;;7594204;23;81020;-67
2023/05/16 13:43:39;;;;;;;9.07;5.20;;;23.60;53.50;;;;;;7597442;23;80697;-63
2023/05/16 13:46:40;;;;;;;11.57;5.20;;;23.60;53.80;;;;;;7600702;23;80129;-65
2023/05/16 13:49:40;;;;;;;6.80;4.60;;;23.60;54.10;;;;;;7573553;23;82563;-65
2023/05/16 13:52:41;;;;;;;7.80;4.35;;;23.60;54.40;;;;;;7592774;23;81378;-64
2023/05/16 13:55:41;;;;;;;6.53;4.55;;;23.60;54.10;;;;;;7551240;23;80944;-66
2023/05/16 13:58:42;;;;;;;8.00;4.05;;;23.60;54.10;;;;;;7581014;23;82023;-69
2023/05/16 14:01:43;;;;;;;6.45;3.70;;;23.70;54.60;;;;;;7594724;23;81214;-67
2023/05/16 14:04:43;;;;;;;5.88;3.95;;;23.70;54.40;;;;;;7599870;23;80520;-68
2023/05/16 14:07:44;;;;;;;8.50;3.80;;;23.80;54.50;;;;;;7597088;23;81594;-66
2023/05/16 14:10:44;;;;;;;7.22;4.00;;;23.80;54.40;;;;;;7602741;23;80174;-69
2023/05/16 14:13:45;;;;;;;4.97;4.15;;;23.80;54.50;;;;;;7599878;23;80112;-69
2023/05/16 14:16:46;;;;;;;6.88;4.47;;;23.70;54.60;;;;;;7600060;23;80838;-67
2023/05/16 14:19:46;;;;;;;7.40;3.90;;;23.70;54.80;;;;;;7599916;23;80539;-61
2023/05/16 14:22:47;;;;;;;5.25;4.00;;;23.70;54.40;;;;;;7599371;23;80709;-62
2023/05/16 14:25:47;;;;;;;6.00;4.72;;;23.80;54.80;;;;;;7600782;23;81123;-63
2023/05/16 14:28:48;;;;;;;5.68;3.50;;;23.70;55.00;;;;;;7597870;23;80710;-64
2023/05/16 14:31:49;;;;;;;11.27;4.43;;;23.80;55.20;;;;;;7598826;23;87389;-62
2023/05/16 14:34:49;;;;;;;6.50;4.15;;;23.80;55.70;;;;;;7600618;23;80479;-62
2023/05/16 14:37:50;;;;;;;7.45;4.07;;;23.70;55.80;;;;;;7601996;23;80856;-67
2023/05/16 14:40:51;;;;;;;9.27;4.18;;;23.70;55.10;;;;;;7575596;23;80478;-69
2023/05/16 14:43:51;;;;;;;3.83;3.53;;;23.70;55.10;;;;;;7605309;23;81009;-70
2023/05/16 14:46:52;;;;;;;6.78;5.20;;;23.70;55.30;;;;;;7587601;23;80869;-71
2023/05/16 14:49:53;;;;;;;9.43;4.60;;;23.70;55.00;;;;;;7579206;23;81726;-70
2023/05/16 14:52:53;;;;;;;4.30;3.75;;;23.70;55.10;;;;;;7603071;23;81622;-71
2023/05/16 14:55:54;;;;;;;6.15;3.97;;;23.70;55.10;;;;;;7606681;23;80391;-64
2023/05/16 14:58:54;;;;;;;5.95;4.22;;;23.70;54.90;;;;;;7569467;23;80702;-65
2023/05/16 15:01:55;;;;;;;6.32;4.25;;;23.70;55.00;;;;;;7597250;23;80862;-65
2023/05/16 15:04:55;;;;;;;6.65;4.38;;;23.70;55.00;;;;;;7604464;23;81380;-64
2023/05/16 15:07:56;;;;;;;6.85;4.22;;;23.70;55.00;;;;;;7606984;23;80762;-64
2023/05/16 15:10:57;;;;;;;6.57;4.20;;;23.80;54.80;;;;;;7598177;23;80252;-67
2023/05/16 15:13:59;;;;;;;10.38;4.60;;;23.70;54.80;;;;;;7605973;23;80330;-67
2023/05/16 15:16:59;;;;;;;5.82;4.32;;;23.70;54.80;;;;;;7605152;23;81148;-75
2023/05/16 15:20:00;;;;;;;6.45;4.00;;;23.70;54.90;;;;;;7604334;23;80176;-64
2023/05/16 15:23:00;;;;;;;5.55;4.28;;;23.70;54.80;;;;;;7604270;23;80489;-67
2023/05/16 15:26:01;;;;;;;6.72;3.83;;;23.70;54.90;;;;;;7600363;23;81248;-70
2023/05/16 15:29:02;;;;;;;5.65;3.70;;;23.80;55.10;;;;;;7605358;23;80951;-64
2023/05/16 15:32:02;;;;;;;5.95;5.18;;;23.80;54.80;;;;;;7602185;23;80361;-71
2023/05/16 15:35:03;;;;;;;6.60;3.95;;;23.80;54.80;;;;;;7599130;23;80335;-67
2023/05/16 15:38:03;;;;;;;5.50;3.97;;;23.70;54.70;;;;;;7605318;23;81590;-68